Time;durP1;ratioP1;P1;durP2;ratioP2;P2;SDS_P1;SDS_P2;PMS_P1;PMS_P2;Temp;Humidity;BMP_temperature;BMP_pressure;BME280_temperature;BME280_humidity;BME280_pressure;Samples;Min_cycle;Max_cycle;Signal;HPM_P1;HPM_P2
2022/07/21 00:00:27;;;;;;;19.03;9.17;;;22.30;99.90;;;23.11;96.91;100791.53;5068963;28;21189;-65
2022/07/21 00:02:55;;;;;;;15.47;9.37;;;22.30;99.90;;;23.23;96.28;100797.22;5036846;28;20744;-65
2022/07/21 00:05:23;;;;;;;15.47;8.73;;;22.30;99.90;;;23.17;96.64;100796.94;4996418;28;21094;-65
2022/07/21 00:07:51;;;;;;;14.30;9.30;;;22.30;99.90;;;22.94;98.45;100803.41;5029212;28;20659;-63
2022/07/21 00:10:22;;;;;;;14.60;10.03;;;22.30;99.90;;;23.13;97.56;100814.31;5047390;28;20627;-65
2022/07/21 00:12:49;;;;;;;14.90;10.17;;;22.30;99.90;;;23.22;96.82;100815.03;5033106;28;20634;-65
2022/07/21 00:15:19;;;;;;;13.87;9.60;;;22.30;99.90;;;23.31;93.51;100832.53;5015507;28;20658;-64
2022/07/21 00:17:47;;;;;;;14.10;10.00;;;22.40;99.90;;;23.41;93.36;100842.91;5031731;28;20644;-64
2022/07/21 00:20:16;;;;;;;14.60;9.20;;;22.50;99.90;;;23.40;91.96;100842.09;5040002;28;20727;-66
2022/07/21 00:22:43;;;;;;;15.90;10.53;;;22.50;99.90;;;23.50;90.50;100842.63;5015570;28;20669;-66
2022/07/21 00:25:12;;;;;;;16.87;11.00;;;22.60;99.90;;;23.59;89.05;100848.66;5035819;28;20706;-65
2022/07/21 00:27:40;;;;;;;16.97;8.87;;;22.60;99.90;;;23.60;88.80;100858.28;5036164;28;21012;-64
2022/07/21 00:30:10;;;;;;;12.00;9.27;;;22.60;99.90;;;23.50;89.18;100853.28;5036401;28;20647;-65
2022/07/21 00:32:37;;;;;;;12.70;8.80;;;22.60;99.90;;;23.42;90.09;100858.72;5053559;28;20665;-64
2022/07/21 00:35:07;;;;;;;15.20;9.27;;;22.50;99.90;;;23.08;93.21;100859.28;5050105;28;20740;-63
2022/07/21 00:37:35;;;;;;;12.97;9.40;;;22.40;99.90;;;23.18;93.18;100869.66;5054017;28;21077;-63
2022/07/21 00:40:05;;;;;;;13.57;9.30;;;22.30;99.90;;;23.19;92.35;100870.47;5036065;28;20727;-64
2022/07/21 00:42:33;;;;;;;14.23;9.80;;;22.30;99.90;;;23.10;93.24;100870.59;5053405;28;20754;-65
2022/07/21 00:45:01;;;;;;;13.23;9.30;;;22.30;99.90;;;22.97;93.97;100866.91;5052247;28;20620;-64
2022/07/21 00:47:30;;;;;;;13.00;8.70;;;22.20;99.90;;;23.14;93.03;100879.84;5035551;28;20644;-62
2022/07/21 00:50:00;;;;;;;15.27;9.87;;;22.20;99.90;;;23.17;92.90;100879.47;5054005;28;20623;-66
2022/07/21 00:52:27;;;;;;;20.27;12.07;;;22.20;99.90;;;23.15;93.49;100878.81;5033440;28;20655;-66
2022/07/21 00:54:54;;;;;;;15.93;10.87;;;22.20;99.90;;;23.15;93.42;100875.34;5031236;28;20636;-64
2022/07/21 00:57:21;;;;;;;15.67;10.60;;;22.30;99.90;;;23.14;92.65;100876.38;5035301;28;20731;-65
2022/07/21 00:59:48;;;;;;;18.37;12.63;;;22.30;99.90;;;23.03;94.23;100863.53;5052397;28;20619;-66
2022/07/21 01:02:15;;;;;;;16.60;11.97;;;22.20;99.90;;;22.95;93.79;100861.78;5034881;28;20746;-67
2022/07/21 01:04:42;;;;;;;15.17;9.37;;;22.10;99.90;;;22.83;94.91;100875.75;5053795;28;20619;-66
2022/07/21 01:07:09;;;;;;;17.50;10.70;;;22.10;99.90;;;22.48;97.00;100869.25;5052291;28;20719;-65
2022/07/21 01:09:37;;;;;;;14.10;9.23;;;21.90;99.90;;;22.42;98.25;100870.00;5034736;28;20620;-67
2022/07/21 01:12:04;;;;;;;16.90;11.07;;;21.70;99.90;;;22.50;97.71;100863.75;5052973;28;20693;-65
2022/07/21 01:14:32;;;;;;;15.57;10.83;;;21.70;99.90;;;22.63;96.34;100867.47;5052758;28;20618;-66
2022/07/21 01:17:03;;;;;;;16.23;11.93;;;21.80;99.90;;;22.81;95.46;100873.25;5053329;28;20701;-67
2022/07/21 01:19:30;;;;;;;17.60;11.40;;;21.80;99.90;;;23.02;93.59;100883.19;5051942;28;20670;-66
2022/07/21 01:21:58;;;;;;;15.13;10.50;;;22.00;99.90;;;23.24;91.81;100884.88;5034320;28;21087;-67
2022/07/21 01:24:24;;;;;;;15.43;8.90;;;22.10;99.90;;;23.41;89.81;100889.00;5053679;28;20611;-66
2022/07/21 01:26:53;;;;;;;16.00;10.47;;;22.30;99.90;;;23.24;91.15;100886.69;5052175;28;20747;-68
2022/07/21 01:29:22;;;;;;;18.23;11.17;;;22.30;99.90;;;23.16;91.71;100885.00;5053084;28;20706;-67
2022/07/21 01:31:50;;;;;;;15.10;10.20;;;22.20;99.90;;;23.17;91.77;100888.47;5035266;28;20624;-67
2022/07/21 01:34:20;;;;;;;17.00;11.13;;;22.20;99.90;;;23.13;91.96;100894.16;5052318;28;20726;-65
2022/07/21 01:36:47;;;;;;;13.67;9.43;;;22.20;99.90;;;23.13;91.88;100899.47;5026611;28;20634;-65
2022/07/21 01:42:01;;;;;;;16.40;11.30;;;22.20;99.90;;;22.91;93.95;100907.56;5052573;28;20741;-66
2022/07/21 01:44:28;;;;;;;15.80;10.50;;;22.10;99.90;;;22.90;93.89;100906.75;5052673;28;20660;-65
2022/07/21 01:46:55;;;;;;;19.03;11.03;;;22.00;99.90;;;22.94;93.63;100915.19;5053333;28;21283;-67
2022/07/21 01:49:22;;;;;;;14.10;8.87;;;22.00;99.90;;;22.87;93.19;100907.09;5052084;28;21202;-65
2022/07/21 01:51:50;;;;;;;15.23;10.63;;;22.00;99.90;;;22.81;94.05;100905.16;5032711;28;21062;-64
2022/07/21 01:54:18;;;;;;;21.60;12.50;;;21.90;99.90;;;22.70;94.76;100905.63;5044242;28;20634;-65
2022/07/21 01:56:50;;;;;;;16.67;11.60;;;21.90;99.90;;;22.75;94.25;100911.22;5051420;28;21052;-66
2022/07/21 01:59:18;;;;;;;18.13;12.50;;;21.90;99.90;;;22.75;93.98;100907.72;5032328;28;20640;-67
2022/07/21 02:01:46;;;;;;;16.90;11.40;;;21.90;99.90;;;22.79;93.24;100909.84;5031499;28;20641;-67
2022/07/21 02:04:14;;;;;;;17.10;11.20;;;21.90;99.90;;;22.63;94.35;100912.69;5046339;28;20626;-65
2022/07/21 02:06:42;;;;;;;19.93;12.33;;;21.90;99.90;;;22.74;93.41;100912.25;5050945;28;21031;-65
2022/07/21 02:09:09;;;;;;;15.90;10.40;;;21.90;99.90;;;22.65;93.58;100910.69;5050937;28;20631;-65
2022/07/21 02:11:37;;;;;;;18.90;12.70;;;21.80;99.90;;;22.74;92.94;100912.25;5034185;28;20642;-66
2022/07/21 02:14:04;;;;;;;21.30;12.87;;;21.80;99.90;;;22.71;92.40;100912.59;5034287;28;20625;-66
2022/07/21 02:16:31;;;;;;;20.13;13.23;;;21.80;99.90;;;22.81;91.29;100910.50;5052879;28;20670;-65
2022/07/21 02:18:59;;;;;;;19.07;11.77;;;21.90;99.90;;;22.85;90.91;100925.06;5045157;28;20995;-67
2022/07/21 02:21:26;;;;;;;19.00;13.00;;;21.90;99.90;;;22.92;90.53;100923.34;5033104;28;21204;-68
2022/07/21 02:23:53;;;;;;;17.97;12.23;;;21.90;99.90;;;22.87;90.08;100920.41;5051397;28;20728;-65
2022/07/21 02:26:20;;;;;;;16.33;11.40;;;22.00;99.90;;;22.88;90.11;100919.41;5051587;28;20631;-66
2022/07/21 02:28:47;;;;;;;19.13;12.80;;;22.00;99.90;;;22.97;89.71;100922.81;5033923;28;21233;-67
2022/07/21 02:31:14;;;;;;;16.60;12.20;;;22.00;99.90;;;23.11;89.38;100933.44;5051593;28;20615;-66
2022/07/21 02:33:41;;;;;;;16.83;11.73;;;22.00;99.90;;;23.19;88.13;100931.72;5051767;28;20632;-66
2022/07/21 02:36:09;;;;;;;19.37;11.90;;;22.10;99.90;;;23.27;86.97;100928.94;5046902;28;20703;-67
2022/07/21 02:38:36;;;;;;;20.97;12.10;;;22.20;99.90;;;22.94;89.14;100936.47;5029443;28;20630;-65
2022/07/21 02:41:03;;;;;;;17.67;12.57;;;22.10;99.90;;;23.00;88.75;100933.06;5050293;28;20715;-66
2022/07/21 02:43:30;;;;;;;20.13;13.33;;;22.10;99.90;;;23.17;87.95;100933.72;5051681;28;21310;-65
2022/07/21 02:45:57;;;;;;;19.80;12.27;;;22.10;99.90;;;23.27;87.49;100932.44;5051536;28;20659;-67
2022/07/21 02:48:24;;;;;;;18.07;13.50;;;22.20;99.90;;;23.39;86.36;100930.16;5051817;28;20668;-65
2022/07/21 02:50:51;;;;;;;19.67;13.30;;;22.30;99.90;;;23.41;86.08;100936.94;5030925;28;20642;-66
2022/07/21 02:53:22;;;;;;;18.97;12.60;;;22.40;99.90;;;23.44;86.21;100938.41;5048250;28;20650;-65
2022/07/21 02:55:52;;;;;;;24.20;11.90;;;22.40;99.90;;;23.52;85.20;100935.63;5049661;28;20612;-67
2022/07/21 02:58:28;;;;;;;19.13;12.77;;;22.40;99.90;;;23.45;86.05;100937.38;5032601;28;20628;-67
2022/07/21 03:01:04;;;;;;;18.70;12.70;;;22.40;99.90;;;23.44;86.25;100941.06;5051175;28;20626;-66
2022/07/21 03:03:35;;;;;;;17.80;12.27;;;22.40;99.90;;;23.42;86.02;100941.28;5049287;28;20701;-66
2022/07/21 03:06:04;;;;;;;21.70;11.17;;;22.40;99.90;;;23.41;86.22;100944.09;5049707;28;20663;-65
2022/07/21 03:08:31;;;;;;;20.63;12.20;;;22.40;99.90;;;23.35;86.52;100940.34;5050648;28;20663;-65
2022/07/21 03:10:58;;;;;;;18.37;12.47;;;22.30;99.90;;;23.34;86.34;100937.88;5033081;28;20738;-65
2022/07/21 03:13:25;;;;;;;17.47;11.97;;;22.30;99.90;;;23.36;86.50;100939.31;5050605;28;20639;-65
2022/07/21 03:15:53;;;;;;;15.80;11.57;;;22.30;99.90;;;23.34;86.54;100945.88;5032627;28;20636;-65
2022/07/21 03:18:20;;;;;;;16.37;11.47;;;22.30;99.90;;;23.37;86.23;100945.47;5044336;28;20679;-65
2022/07/21 03:20:47;;;;;;;16.50;12.47;;;22.30;99.90;;;23.28;86.60;100949.22;5049343;28;21218;-67
2022/07/21 03:23:14;;;;;;;17.90;12.37;;;22.30;99.90;;;23.26;86.08;100946.75;5050524;28;20640;-66
2022/07/21 03:25:41;;;;;;;17.57;12.10;;;22.30;99.90;;;23.20;86.07;100950.16;5050755;28;21070;-67
2022/07/21 03:28:08;;;;;;;22.17;11.93;;;22.20;99.90;;;23.17;85.67;100951.34;5051317;28;21035;-66
2022/07/21 03:30:35;;;;;;;15.20;11.30;;;22.20;99.90;;;23.08;85.63;100946.31;5046032;28;20640;-67
2022/07/21 03:33:03;;;;;;;16.07;11.87;;;22.10;99.90;;;23.02;85.41;100955.03;5046966;28;20738;-67
2022/07/21 03:35:30;;;;;;;16.70;11.30;;;22.10;99.90;;;22.92;85.15;100954.44;5047569;28;20653;-66
2022/07/21 03:38:00;;;;;;;18.97;11.70;;;22.00;99.90;;;22.85;85.68;100959.66;5032563;28;20681;-67
2022/07/21 03:40:33;;;;;;;15.97;10.67;;;21.90;99.90;;;23.03;84.23;100962.81;5031941;28;21157;-65
2022/07/21 03:43:03;;;;;;;16.60;11.77;;;22.00;99.90;;;23.07;83.63;100966.78;5049629;28;21033;-65
2022/07/21 03:45:33;;;;;;;19.70;9.77;;;22.10;99.90;;;23.07;82.28;100964.09;5050445;28;20713;-67
2022/07/21 03:48:03;;;;;;;21.00;10.40;;;22.10;99.90;;;23.11;81.84;100975.19;5049942;28;20660;-67
2022/07/21 03:50:30;;;;;;;11.97;9.40;;;22.10;99.90;;;23.12;81.41;100967.06;5012129;28;21263;-66
2022/07/21 03:52:58;;;;;;;12.20;8.20;;;22.10;99.90;;;23.23;79.71;100963.09;5046484;28;20691;-65
2022/07/21 03:55:26;;;;;;;14.97;9.53;;;22.20;99.90;;;23.13;78.63;100974.00;5032549;28;20730;-67
2022/07/21 03:58:00;;;;;;;14.23;9.00;;;22.20;99.90;;;23.13;78.40;100974.00;5031993;28;20595;-67
2022/07/21 04:00:41;;;;;;;11.57;8.70;;;22.10;99.90;;;23.30;77.78;100968.53;5035872;28;20734;-68
2022/07/21 04:03:09;;;;;;;12.30;8.40;;;22.20;99.90;;;23.37;77.61;100969.44;5054025;28;20654;-66
2022/07/21 04:05:39;;;;;;;15.97;9.17;;;22.20;99.90;;;23.25;78.75;100969.06;5031295;28;20648;-65
2022/07/21 04:08:09;;;;;;;11.37;8.47;;;22.30;99.90;;;23.25;78.53;100968.25;5044155;28;21101;-65
2022/07/21 04:10:38;;;;;;;12.03;9.17;;;22.20;99.90;;;23.43;77.78;100980.19;5032328;28;21391;-66
2022/07/21 04:13:11;;;;;;;15.60;9.27;;;22.30;99.90;;;23.26;78.58;100973.38;5000889;28;21101;-66
2022/07/21 04:15:39;;;;;;;14.87;10.30;;;22.30;99.90;;;23.34;78.50;100980.50;5022529;28;20651;-65
2022/07/21 04:18:07;;;;;;;11.80;8.80;;;22.30;99.90;;;23.24;78.78;100980.72;5054730;28;20726;-66
2022/07/21 04:20:35;;;;;;;12.53;10.07;;;22.30;99.90;;;23.38;77.68;100976.44;5036208;28;20604;-67
2022/07/21 04:23:03;;;;;;;11.43;8.27;;;22.30;99.90;;;23.34;76.95;100969.84;5037245;28;20631;-66
2022/07/21 04:25:30;;;;;;;11.40;8.27;;;22.40;99.90;;;23.42;76.40;100972.41;5036137;28;20749;-64
2022/07/21 04:27:58;;;;;;;12.20;9.17;;;22.40;99.90;;;23.40;76.61;100977.09;5052328;28;20662;-66
2022/07/21 04:30:25;;;;;;;11.60;8.67;;;22.40;99.90;;;23.44;76.23;100976.53;5036196;28;20657;-66
2022/07/21 04:32:52;;;;;;;14.33;8.90;;;22.40;99.90;;;23.49;75.56;100973.31;5053229;28;21469;-65
2022/07/21 04:35:20;;;;;;;13.37;9.90;;;22.40;99.90;;;23.32;75.85;100972.63;5034119;28;20701;-67
2022/07/21 04:37:48;;;;;;;19.10;8.47;;;22.30;99.90;;;23.24;76.34;100970.06;5053913;28;20622;-67
2022/07/21 04:40:16;;;;;;;11.97;9.13;;;22.30;99.90;;;23.22;76.70;100969.44;5054180;28;20634;-66
2022/07/21 04:42:44;;;;;;;12.10;8.77;;;22.30;99.90;;;23.12;76.65;100971.53;5053429;28;20691;-63
2022/07/21 04:45:14;;;;;;;15.27;9.10;;;22.20;99.90;;;23.14;77.48;100969.53;5034625;28;20638;-65
2022/07/21 04:47:50;;;;;;;12.57;8.87;;;22.10;99.90;;;23.25;77.17;100981.56;5054287;28;20758;-68
2022/07/21 04:50:19;;;;;;;12.13;8.80;;;22.20;99.90;;;23.30;76.90;100987.16;5035681;28;20612;-66
2022/07/21 04:52:47;;;;;;;11.60;8.87;;;22.20;99.90;;;23.35;76.46;100990.09;5053260;28;20656;-64
2022/07/21 04:55:15;;;;;;;14.03;9.47;;;22.30;99.90;;;23.49;76.39;100994.63;5052360;28;20646;-67
2022/07/21 04:57:51;;;;;;;15.97;9.53;;;22.40;99.90;;;23.60;75.94;101004.78;5028989;28;21308;-66
2022/07/21 05:00:24;;;;;;;13.63;8.80;;;22.50;99.90;;;23.40;75.84;101009.03;5039429;28;20649;-64
2022/07/21 05:02:53;;;;;;;16.07;10.17;;;22.50;99.90;;;23.41;75.89;101006.19;5053858;28;20646;-63
2022/07/21 05:05:20;;;;;;;14.13;9.17;;;22.50;99.90;;;23.40;76.29;101009.03;5034820;28;21052;-65
2022/07/21 05:07:48;;;;;;;16.00;9.37;;;22.40;99.90;;;23.11;77.46;101018.63;5033595;28;20656;-63
2022/07/21 05:10:18;;;;;;;13.67;9.77;;;22.20;99.90;;;23.32;76.63;101020.56;5031539;28;20600;-65
2022/07/21 05:12:45;;;;;;;14.63;10.23;;;22.30;99.90;;;23.15;77.20;101024.41;5033791;28;20746;-63
2022/07/21 05:15:12;;;;;;;13.30;9.63;;;22.30;99.90;;;23.21;76.98;101015.72;4954598;28;20768;-64
2022/07/21 05:17:40;;;;;;;11.57;8.00;;;22.30;99.90;;;22.98;77.09;101018.41;5028101;28;21211;-65
2022/07/21 05:20:09;;;;;;;9.33;7.50;;;22.20;99.90;;;23.01;77.03;101023.38;5034136;28;20634;-65
2022/07/21 05:22:36;;;;;;;11.20;9.07;;;22.20;99.90;;;23.14;76.38;101023.59;5052457;28;20706;-65
2022/07/21 05:25:05;;;;;;;11.33;8.40;;;22.20;99.90;;;23.25;75.59;101018.81;5052647;28;20630;-64
2022/07/21 05:27:32;;;;;;;10.90;8.70;;;22.30;99.90;;;23.37;74.72;101028.03;5053547;28;20645;-64
2022/07/21 05:29:59;;;;;;;11.67;8.50;;;22.30;99.90;;;23.44;74.53;101027.13;5031551;28;21016;-64
2022/07/21 05:32:26;;;;;;;13.43;8.30;;;22.40;99.90;;;23.36;74.75;101027.19;5033498;28;20633;-63
2022/07/21 05:34:53;;;;;;;10.70;8.27;;;22.40;99.90;;;23.45;74.65;101019.94;5053388;28;20626;-66
2022/07/21 05:37:20;;;;;;;12.30;9.30;;;22.40;99.90;;;23.68;73.92;101026.81;5051960;28;20620;-65
2022/07/21 05:39:47;;;;;;;11.87;8.50;;;22.60;99.90;;;23.74;73.39;101025.28;4999369;28;20652;-64
2022/07/21 05:42:14;;;;;;;15.43;9.40;;;22.60;99.90;;;23.49;74.48;101013.25;5032005;28;21008;-64
2022/07/21 05:44:41;;;;;;;11.43;9.27;;;22.60;99.90;;;23.33;75.22;101021.41;5036142;28;21221;-66
2022/07/21 05:47:08;;;;;;;13.83;8.50;;;22.40;99.90;;;23.40;75.34;101022.34;5049336;28;21224;-63
2022/07/21 05:49:35;;;;;;;10.67;8.50;;;22.40;99.90;;;23.92;73.26;101017.69;5042443;28;20671;-63
2022/07/21 05:52:03;;;;;;;11.47;8.73;;;22.70;99.90;;;24.64;70.37;101026.47;5048446;28;20755;-65
2022/07/21 05:54:30;;;;;;;13.10;9.33;;;23.40;99.90;;;25.02;68.66;101016.34;5051566;28;20624;-65
2022/07/21 05:56:58;;;;;;;12.07;8.63;;;23.80;99.90;;;25.21;67.44;101021.00;5034097;28;20739;-63
2022/07/21 05:59:25;;;;;;;11.80;8.50;;;24.20;99.90;;;25.64;64.98;101025.16;5051912;28;20628;-65
2022/07/21 06:01:52;;;;;;;16.87;9.23;;;24.50;99.90;;;25.66;64.58;101023.09;5018844;28;20644;-65
2022/07/21 06:04:19;;;;;;;12.53;7.83;;;24.60;99.90;;;25.58;64.42;101027.78;5050970;28;21014;-63
2022/07/21 06:06:46;;;;;;;12.43;8.67;;;24.70;99.90;;;25.75;62.80;101037.94;5033266;28;20636;-67
2022/07/21 06:09:13;;;;;;;10.10;7.30;;;24.90;99.90;;;26.59;59.87;101039.25;5051269;28;20664;-67
2022/07/21 06:11:40;;;;;;;9.30;7.60;;;25.40;99.90;;;27.03;58.41;101041.34;5051446;28;20702;-66
2022/07/21 06:14:07;;;;;;;8.00;7.07;;;25.80;99.90;;;28.00;54.83;101035.97;5051738;28;20731;-64
2022/07/21 06:16:34;;;;;;;11.63;8.47;;;26.40;99.90;;;28.96;52.11;101040.88;5034299;28;20612;-65
2022/07/21 06:19:02;;;;;;;8.03;6.67;;;27.20;99.90;;;29.42;50.17;101056.59;5046173;28;20646;-64
2022/07/21 06:21:29;;;;;;;9.27;6.53;;;27.80;99.90;;;29.30;50.27;101049.50;5050721;28;20644;-65
2022/07/21 06:23:56;;;;;;;7.73;6.90;;;27.80;99.90;;;29.40;48.68;101044.44;5050756;28;21199;-64
2022/07/21 06:26:25;;;;;;;9.17;7.27;;;28.00;99.80;;;29.64;49.42;101046.22;5050549;28;21071;-65
2022/07/21 06:28:53;;;;;;;9.70;6.10;;;28.00;99.80;;;28.78;49.89;101048.09;5050835;28;21306;-65
2022/07/21 06:31:20;;;;;;;8.60;6.93;;;27.90;98.70;;;30.15;47.80;101041.25;5049872;28;20656;-63
2022/07/21 06:33:47;;;;;;;8.93;6.63;;;28.10;99.40;;;31.15;44.52;101050.28;5051413;28;21201;-63
2022/07/21 06:36:15;;;;;;;7.90;6.90;;;29.00;97.50;;;32.51;41.86;101050.41;5050289;28;20636;-66
2022/07/21 06:38:42;;;;;;;8.63;7.17;;;29.80;96.30;;;33.19;40.08;101056.41;5050946;28;20764;-65
2022/07/21 06:41:09;;;;;;;8.90;7.20;;;30.50;94.70;;;33.28;40.12;101054.91;5050699;28;20667;-63
2022/07/21 06:43:36;;;;;;;7.73;6.83;;;30.80;93.70;;;35.09;37.54;101056.09;5052244;28;21246;-63
2022/07/21 06:46:04;;;;;;;8.37;6.77;;;31.60;92.90;;;36.10;34.58;101057.41;5050383;28;20732;-63
2022/07/21 06:48:31;;;;;;;8.17;6.60;;;32.50;90.50;;;36.61;33.68;101062.94;5032208;28;21036;-64
2022/07/21 06:50:58;;;;;;;8.53;7.63;;;32.80;88.00;;;36.06;34.16;101059.03;5018729;28;20648;-65
2022/07/21 06:53:26;;;;;;;7.00;6.30;;;32.90;85.30;;;35.52;35.36;101060.44;5049862;28;20721;-66
2022/07/21 06:55:53;;;;;;;7.57;6.60;;;32.70;84.60;;;32.93;39.45;101059.75;5034012;28;20640;-65
2022/07/21 06:58:29;;;;;;;8.03;6.80;;;31.30;86.00;;;31.11;44.10;101052.63;5049994;28;20686;-66
2022/07/21 07:01:05;;;;;;;8.53;6.70;;;30.00;90.20;;;30.20;46.57;101057.53;5033971;28;20635;-66
2022/07/21 07:03:33;;;;;;;8.37;7.07;;;29.10;92.10;;;30.59;46.31;101057.00;5051498;28;20651;-66
2022/07/21 07:06:03;;;;;;;10.47;7.17;;;29.00;93.40;;;32.46;42.38;101058.38;5051507;28;20616;-65
2022/07/21 07:08:30;;;;;;;6.67;4.87;;;29.60;92.80;;;31.43;43.60;101065.75;5050953;28;21477;-66
2022/07/21 07:10:58;;;;;;;10.13;7.00;;;29.40;92.40;;;29.58;48.17;101066.75;5034157;28;20631;-66
2022/07/21 07:13:25;;;;;;;9.53;7.17;;;28.30;94.10;;;31.27;44.80;101061.88;5016801;28;20972;-66
2022/07/21 07:16:12;;;;;;;10.30;8.70;;;29.00;93.80;;;32.85;41.85;101065.59;5036345;28;20618;-66
2022/07/21 07:18:39;;;;;;;8.03;6.93;;;29.50;94.00;;;35.90;36.33;101073.63;5049777;28;20636;-65
2022/07/21 07:21:06;;;;;;;10.40;7.80;;;31.20;92.10;;;37.21;33.86;101074.59;5040731;28;20647;-65
2022/07/21 07:23:38;;;;;;;11.97;8.27;;;32.30;90.20;;;38.95;30.69;101066.88;5048092;28;20727;-66
2022/07/21 07:26:05;;;;;;;9.13;7.30;;;33.80;84.90;;;38.57;31.70;101075.91;5033339;28;20612;-66
2022/07/21 07:28:32;;;;;;;13.73;7.80;;;33.90;82.00;;;38.03;31.75;101076.78;4969164;28;20664;-66
2022/07/21 07:30:59;;;;;;;6.17;4.97;;;33.90;80.20;;;36.96;32.83;101074.66;5033687;28;20724;-66
2022/07/21 07:33:27;;;;;;;7.90;6.70;;;33.80;79.00;;;37.76;31.68;101073.63;5030787;28;20628;-65
2022/07/21 07:35:56;;;;;;;8.07;7.27;;;33.90;78.40;;;36.28;34.11;101067.78;5033605;28;20723;-66
2022/07/21 07:38:23;;;;;;;10.30;8.03;;;33.40;78.50;;;36.43;34.35;101070.53;5049158;28;20739;-64
2022/07/21 07:40:51;;;;;;;9.13;8.00;;;33.20;79.60;;;36.10;35.02;101070.19;5033290;28;20995;-65
2022/07/21 07:43:18;;;;;;;9.40;8.37;;;33.00;80.00;;;34.15;38.64;101068.50;5033021;28;20644;-66
2022/07/21 07:45:45;;;;;;;8.77;8.00;;;32.10;81.00;;;35.58;36.52;101070.25;5042803;28;21289;-66
2022/07/21 07:48:12;;;;;;;9.57;7.57;;;32.30;82.80;;;35.48;36.60;101078.34;5032234;28;20631;-66
2022/07/21 07:50:39;;;;;;;8.27;7.57;;;32.30;81.50;;;34.01;38.25;101069.97;5049347;28;20642;-66
2022/07/21 07:53:06;;;;;;;10.27;7.57;;;31.70;82.40;;;34.62;37.66;101066.81;5028550;28;20756;-65
2022/07/21 07:55:33;;;;;;;10.00;8.10;;;31.50;84.30;;;33.97;38.91;101087.78;5032443;28;21060;-67
2022/07/21 07:58:00;;;;;;;9.13;8.23;;;31.40;83.20;;;31.79;43.19;101071.69;5031722;28;21167;-66
2022/07/21 08:00:27;;;;;;;10.00;9.00;;;30.10;86.20;;;30.61;46.70;101062.13;5042975;28;21202;-65
2022/07/21 08:03:14;;;;;;;11.23;9.20;;;29.40;90.00;;;29.99;48.70;101062.56;5049168;28;20654;-65
2022/07/21 08:05:42;;;;;;;8.53;6.90;;;28.50;91.90;;;28.92;51.10;101063.88;5024570;28;21179;-66
2022/07/21 08:08:09;;;;;;;12.10;6.90;;;27.90;92.80;;;29.88;48.50;101059.59;5031571;28;20639;-65
2022/07/21 08:10:36;;;;;;;4.23;3.17;;;28.00;93.50;;;32.52;42.16;101068.28;5050450;28;20715;-66
2022/07/21 08:13:15;;;;;;;9.40;7.63;;;29.30;91.70;;;36.09;35.16;101079.41;5049259;28;20714;-64
2022/07/21 08:15:44;;;;;;;10.70;7.63;;;31.10;88.60;;;37.32;32.97;101070.75;5048898;28;20707;-67
2022/07/21 08:18:12;;;;;;;8.60;7.63;;;32.70;83.70;;;35.98;34.99;101067.69;5030632;28;20959;-65
2022/07/21 08:20:39;;;;;;;9.17;7.83;;;32.30;82.70;;;34.68;37.87;101062.25;5042410;28;20643;-62
2022/07/21 08:23:07;;;;;;;8.47;7.60;;;31.70;84.90;;;35.97;35.94;101063.34;5048609;28;21059;-63
2022/07/21 08:25:34;;;;;;;8.60;7.73;;;32.20;84.50;;;33.79;38.82;101066.44;5033325;28;20597;-65
2022/07/21 08:28:02;;;;;;;7.37;6.67;;;31.60;83.40;;;33.36;40.03;101062.59;5049260;28;21010;-63
2022/07/21 08:30:30;;;;;;;8.63;7.20;;;31.00;85.10;;;33.11;40.78;101053.31;5031289;28;21251;-64
2022/07/21 08:32:59;;;;;;;9.63;7.90;;;30.80;85.80;;;31.76;43.60;101058.66;5029144;28;20700;-65
2022/07/21 08:35:27;;;;;;;8.83;7.70;;;29.90;88.20;;;31.82;43.81;101060.41;5047360;28;20655;-64
2022/07/21 08:38:02;;;;;;;13.80;8.73;;;29.60;90.30;;;31.44;44.51;101064.69;5049136;28;20632;-63
2022/07/21 08:40:37;;;;;;;10.60;8.17;;;29.60;90.10;;;30.32;46.89;101055.75;5047788;28;21076;-63
2022/07/21 08:43:06;;;;;;;13.90;8.23;;;29.00;90.90;;;28.98;50.88;101054.91;5030734;28;21074;-63
2022/07/21 08:45:33;;;;;;;10.23;8.33;;;28.00;92.60;;;28.48;51.89;101055.91;5049862;28;21276;-65
2022/07/21 08:48:00;;;;;;;10.20;8.07;;;27.40;93.80;;;30.76;46.71;101053.59;5035378;28;20746;-65
2022/07/21 08:50:31;;;;;;;10.57;7.43;;;28.20;94.10;;;35.43;37.28;101065.53;5052994;28;20677;-66
2022/07/21 08:52:58;;;;;;;8.30;6.87;;;30.30;91.70;;;36.02;35.47;101067.97;5020769;28;20692;-63
2022/07/21 08:55:36;;;;;;;6.67;5.50;;;31.60;87.80;;;34.41;36.85;101061.44;5035445;28;20635;-65
2022/07/21 08:58:04;;;;;;;5.87;5.20;;;31.50;83.70;;;35.65;34.24;101054.53;5052933;28;21182;-65
2022/07/21 09:00:35;;;;;;;4.53;4.13;;;32.10;81.50;;;38.01;29.98;101056.38;5036290;28;20663;-63
2022/07/21 09:03:20;;;;;;;4.80;4.37;;;33.40;76.30;;;36.91;30.99;101046.66;5052924;28;20648;-64
2022/07/21 09:06:15;;;;;;;4.40;4.10;;;33.00;73.80;;;40.09;26.83;101049.44;5052866;28;20677;-66
2022/07/21 09:08:46;;;;;;;5.17;4.67;;;34.70;71.10;;;41.79;23.97;101049.38;5051996;28;20663;-65
2022/07/21 09:11:14;;;;;;;4.70;4.27;;;36.10;66.70;;;42.35;23.65;101051.66;5036648;28;20604;-64
2022/07/21 09:13:44;;;;;;;3.53;3.33;;;36.50;64.00;;;45.19;20.36;101047.25;5053306;28;20690;-67
2022/07/21 09:16:12;;;;;;;4.30;3.90;;;38.10;60.60;;;48.42;17.70;101042.28;5053345;28;20635;-64
2022/07/21 09:18:52;;;;;;;3.60;3.40;;;40.10;57.50;;;48.16;17.51;101037.22;5052387;28;20699;-65
2022/07/21 09:21:19;;;;;;;4.43;4.13;;;40.80;54.10;;;46.30;19.62;101042.13;5052150;28;20631;-64
2022/07/21 09:23:47;;;;;;;5.00;4.70;;;40.10;54.20;;;45.07;20.92;101036.06;5035358;28;20606;-64
2022/07/21 09:26:14;;;;;;;5.37;5.07;;;40.00;54.00;;;44.90;20.82;101038.91;5053689;28;21191;-65
2022/07/21 09:28:42;;;;;;;4.73;4.43;;;39.40;54.50;;;45.87;19.65;101048.78;5051772;28;20616;-66
2022/07/21 09:31:14;;;;;;;4.33;4.13;;;39.60;53.40;;;48.23;17.79;101036.63;5053297;28;20614;-64
2022/07/21 09:33:43;;;;;;;4.57;4.17;;;40.80;52.40;;;49.80;16.60;101040.19;5034909;28;20650;-66
2022/07/21 09:36:17;;;;;;;4.80;4.40;;;41.90;50.70;;;46.40;19.02;101037.00;5035953;28;21182;-64
2022/07/21 09:38:58;;;;;;;4.87;4.57;;;41.30;48.90;;;46.95;18.31;101030.19;5049812;28;20732;-67
2022/07/21 09:41:26;;;;;;;4.20;4.00;;;41.40;50.20;;;48.55;17.55;101031.97;5051795;28;20635;-65
2022/07/21 09:43:56;;;;;;;11.73;10.70;;;41.70;50.10;;;49.72;17.00;101036.44;5033715;28;20735;-67
2022/07/21 09:46:29;;;;;;;9.00;8.27;;;42.50;49.00;;;46.01;19.68;101040.25;5013084;28;21260;-66
2022/07/21 09:49:04;;;;;;;5.23;4.87;;;41.50;49.00;;;43.04;22.33;101031.78;5049101;28;20664;-66
2022/07/21 09:51:51;;;;;;;5.27;4.80;;;39.20;50.80;;;42.17;23.10;101026.03;5031368;28;20663;-67
2022/07/21 09:54:18;;;;;;;8.83;5.23;;;38.40;50.80;;;39.99;25.68;101021.44;5043001;28;20663;-65
2022/07/21 09:56:47;;;;;;;4.60;4.40;;;36.90;52.90;;;39.62;25.45;101027.66;5048102;28;20616;-67
2022/07/21 09:59:14;;;;;;;5.10;4.80;;;36.40;52.80;;;41.04;24.21;101027.06;5049706;28;20634;-67
2022/07/21 10:01:41;;;;;;;5.00;4.60;;;36.50;53.40;;;43.08;21.58;101032.78;5051703;28;20639;-66
2022/07/21 10:04:08;;;;;;;5.27;4.87;;;37.30;52.70;;;45.50;19.26;101029.53;5033818;28;21078;-65
2022/07/21 10:06:39;;;;;;;5.00;4.70;;;38.70;51.30;;;46.66;18.00;101034.78;5052839;28;20615;-67
2022/07/21 10:09:09;;;;;;;5.30;5.00;;;39.60;49.90;;;48.16;16.81;101031.69;5050597;28;20715;-67
2022/07/21 10:11:41;;;;;;;4.90;4.60;;;40.40;49.10;;;47.73;17.44;101039.84;5052020;28;21216;-68
2022/07/21 10:14:12;;;;;;;5.03;4.70;;;40.70;48.50;;;44.64;19.94;101016.94;5033674;28;20615;-67